sensor_id;sensor_type;location;lat;lon;timestamp;P1;durP1;ratioP1;P2;durP2;ratioP2
77449;SDS011;66536;53.150;18.172;2023-03-26T00:16:11;4.90;;;2.80;;
77449;SDS011;66536;53.150;18.172;2023-03-26T00:32:06;5.00;;;2.10;;
77449;SDS011;66536;53.150;18.172;2023-03-26T01:08:34;6.20;;;3.40;;
77449;SDS011;66536;53.150;18.172;2023-03-26T01:16:49;4.20;;;2.20;;
77449;SDS011;66536;53.150;18.172;2023-03-26T01:20:14;5.70;;;2.30;;
77449;SDS011;66536;53.150;18.172;2023-03-26T01:23:19;5.40;;;2.80;;
77449;SDS011;66536;53.150;18.172;2023-03-26T01:26:30;6.30;;;3.40;;
77449;SDS011;66536;53.150;18.172;2023-03-26T01:37:24;4.20;;;2.90;;
77449;SDS011;66536;53.150;18.172;2023-03-26T01:40:58;3.40;;;1.90;;
77449;SDS011;66536;53.150;18.172;2023-03-26T01:51:55;2.10;;;1.10;;
77449;SDS011;66536;53.150;18.172;2023-03-26T01:58:33;2.10;;;1.00;;
77449;SDS011;66536;53.150;18.172;2023-03-26T02:02:40;2.20;;;1.20;;
77449;SDS011;66536;53.150;18.172;2023-03-26T02:05:44;2.10;;;1.00;;
77449;SDS011;66536;53.150;18.172;2023-03-26T02:09:14;4.80;;;1.20;;
77449;SDS011;66536;53.150;18.172;2023-03-26T02:12:10;3.00;;;1.10;;
77449;SDS011;66536;53.150;18.172;2023-03-26T02:15:18;2.20;;;1.00;;
77449;SDS011;66536;53.150;18.172;2023-03-26T02:18:42;1.50;;;0.80;;
77449;SDS011;66536;53.150;18.172;2023-03-26T02:21:29;4.90;;;1.10;;
77449;SDS011;66536;53.150;18.172;2023-03-26T02:24:32;2.30;;;1.20;;
77449;SDS011;66536;53.150;18.172;2023-03-26T02:27:16;1.70;;;0.90;;
77449;SDS011;66536;53.150;18.172;2023-03-26T02:30:35;2.20;;;0.60;;
77449;SDS011;66536;53.150;18.172;2023-03-26T02:33:42;3.10;;;0.90;;
77449;SDS011;66536;53.150;18.172;2023-03-26T02:37:31;2.50;;;1.00;;
77449;SDS011;66536;53.150;18.172;2023-03-26T02:40:41;2.60;;;0.90;;
77449;SDS011;66536;53.150;18.172;2023-03-26T02:44:29;1.90;;;0.60;;
77449;SDS011;66536;53.150;18.172;2023-03-26T02:48:23;2.40;;;1.20;;
77449;SDS011;66536;53.150;18.172;2023-03-26T02:50:58;2.20;;;0.90;;
77449;SDS011;66536;53.150;18.172;2023-03-26T02:54:01;2.90;;;0.60;;
77449;SDS011;66536;53.150;18.172;2023-03-26T02:56:58;1.60;;;0.50;;
77449;SDS011;66536;53.150;18.172;2023-03-26T02:59:50;4.90;;;1.20;;
77449;SDS011;66536;53.150;18.172;2023-03-26T03:02:45;2.00;;;1.20;;
77449;SDS011;66536;53.150;18.172;2023-03-26T03:06:26;1.40;;;0.70;;
77449;SDS011;66536;53.150;18.172;2023-03-26T03:08:57;2.30;;;1.20;;
77449;SDS011;66536;53.150;18.172;2023-03-26T03:12:16;2.90;;;0.60;;
77449;SDS011;66536;53.150;18.172;2023-03-26T03:14:51;2.40;;;0.60;;
77449;SDS011;66536;53.150;18.172;2023-03-26T03:18:41;1.50;;;0.60;;
77449;SDS011;66536;53.150;18.172;2023-03-26T03:22:39;2.00;;;0.60;;
77449;SDS011;66536;53.150;18.172;2023-03-26T03:25:49;3.80;;;0.90;;
77449;SDS011;66536;53.150;18.172;2023-03-26T03:29:22;2.00;;;0.80;;
77449;SDS011;66536;53.150;18.172;2023-03-26T03:32:34;2.60;;;0.80;;
77449;SDS011;66536;53.150;18.172;2023-03-26T03:43:29;3.00;;;1.50;;
77449;SDS011;66536;53.150;18.172;2023-03-26T03:46:29;3.20;;;1.20;;
77449;SDS011;66536;53.150;18.172;2023-03-26T03:48:59;1.40;;;0.80;;
77449;SDS011;66536;53.150;18.172;2023-03-26T03:56:15;3.60;;;1.40;;
77449;SDS011;66536;53.150;18.172;2023-03-26T03:59:19;2.70;;;1.30;;
77449;SDS011;66536;53.150;18.172;2023-03-26T04:02:13;3.70;;;1.80;;
77449;SDS011;66536;53.150;18.172;2023-03-26T04:04:55;1.80;;;1.40;;
77449;SDS011;66536;53.150;18.172;2023-03-26T04:08:17;3.00;;;1.00;;
77449;SDS011;66536;53.150;18.172;2023-03-26T04:10:42;3.90;;;1.30;;
77449;SDS011;66536;53.150;18.172;2023-03-26T04:13:59;2.60;;;1.20;;
77449;SDS011;66536;53.150;18.172;2023-03-26T04:17:18;1.80;;;0.90;;
77449;SDS011;66536;53.150;18.172;2023-03-26T04:19:53;2.80;;;1.10;;
77449;SDS011;66536;53.150;18.172;2023-03-26T04:23:06;1.70;;;0.70;;
77449;SDS011;66536;53.150;18.172;2023-03-26T04:25:41;2.30;;;1.20;;
77449;SDS011;66536;53.150;18.172;2023-03-26T04:29:21;3.10;;;1.00;;
77449;SDS011;66536;53.150;18.172;2023-03-26T04:32:42;2.90;;;1.10;;
77449;SDS011;66536;53.150;18.172;2023-03-26T04:35:56;1.40;;;0.90;;
77449;SDS011;66536;53.150;18.172;2023-03-26T04:38:48;1.70;;;0.80;;
77449;SDS011;66536;53.150;18.172;2023-03-26T04:42:10;1.80;;;0.80;;
77449;SDS011;66536;53.150;18.172;2023-03-26T04:44:57;2.00;;;1.20;;
77449;SDS011;66536;53.150;18.172;2023-03-26T04:47:54;2.60;;;1.20;;
77449;SDS011;66536;53.150;18.172;2023-03-26T04:50:25;2.50;;;1.30;;
77449;SDS011;66536;53.150;18.172;2023-03-26T04:52:57;2.50;;;1.20;;
77449;SDS011;66536;53.150;18.172;2023-03-26T04:55:54;2.90;;;1.30;;
77449;SDS011;66536;53.150;18.172;2023-03-26T04:58:37;3.70;;;1.30;;
77449;SDS011;66536;53.150;18.172;2023-03-26T05:01:04;1.90;;;1.40;;
77449;SDS011;66536;53.150;18.172;2023-03-26T05:03:43;4.70;;;2.30;;
77449;SDS011;66536;53.150;18.172;2023-03-26T05:06:49;4.30;;;2.10;;
77449;SDS011;66536;53.150;18.172;2023-03-26T05:09:54;3.90;;;2.50;;
77449;SDS011;66536;53.150;18.172;2023-03-26T05:13:22;4.60;;;3.20;;
77449;SDS011;66536;53.150;18.172;2023-03-26T05:15:48;3.60;;;2.40;;
77449;SDS011;66536;53.150;18.172;2023-03-26T05:18:36;6.20;;;4.20;;
77449;SDS011;66536;53.150;18.172;2023-03-26T05:21:30;3.50;;;2.50;;
77449;SDS011;66536;53.150;18.172;2023-03-26T05:24:00;3.50;;;2.40;;
77449;SDS011;66536;53.150;18.172;2023-03-26T05:27:14;2.70;;;1.70;;
77449;SDS011;66536;53.150;18.172;2023-03-26T05:30:00;2.60;;;1.80;;
77449;SDS011;66536;53.150;18.172;2023-03-26T05:32:55;3.90;;;2.90;;
77449;SDS011;66536;53.150;18.172;2023-03-26T05:36:40;2.00;;;1.00;;
77449;SDS011;66536;53.150;18.172;2023-03-26T05:40:40;4.70;;;1.80;;
77449;SDS011;66536;53.150;18.172;2023-03-26T05:43:29;3.40;;;1.90;;
77449;SDS011;66536;53.150;18.172;2023-03-26T05:46:05;4.30;;;2.80;;
77449;SDS011;66536;53.150;18.172;2023-03-26T05:48:36;2.70;;;2.40;;
77449;SDS011;66536;53.150;18.172;2023-03-26T05:51:04;3.10;;;2.70;;
77449;SDS011;66536;53.150;18.172;2023-03-26T05:53:31;3.00;;;1.80;;
77449;SDS011;66536;53.150;18.172;2023-03-26T05:56:09;2.70;;;2.20;;
77449;SDS011;66536;53.150;18.172;2023-03-26T05:58:47;3.20;;;1.60;;
77449;SDS011;66536;53.150;18.172;2023-03-26T06:01:41;3.00;;;1.80;;
77449;SDS011;66536;53.150;18.172;2023-03-26T06:04:42;3.10;;;2.20;;
77449;SDS011;66536;53.150;18.172;2023-03-26T06:07:28;2.70;;;1.30;;
77449;SDS011;66536;53.150;18.172;2023-03-26T06:10:31;3.20;;;1.90;;
77449;SDS011;66536;53.150;18.172;2023-03-26T06:13:03;2.90;;;2.00;;
77449;SDS011;66536;53.150;18.172;2023-03-26T06:15:32;2.40;;;1.90;;
77449;SDS011;66536;53.150;18.172;2023-03-26T06:18:15;4.80;;;2.00;;
77449;SDS011;66536;53.150;18.172;2023-03-26T06:21:26;2.60;;;1.60;;
77449;SDS011;66536;53.150;18.172;2023-03-26T06:24:20;3.20;;;2.20;;
77449;SDS011;66536;53.150;18.172;2023-03-26T06:27:05;5.40;;;2.30;;
77449;SDS011;66536;53.150;18.172;2023-03-26T06:29:43;3.70;;;2.30;;
77449;SDS011;66536;53.150;18.172;2023-03-26T06:32:17;5.30;;;2.70;;
77449;SDS011;66536;53.150;18.172;2023-03-26T06:34:51;5.70;;;2.40;;
77449;SDS011;66536;53.150;18.172;2023-03-26T06:37:17;2.90;;;1.50;;
77449;SDS011;66536;53.150;18.172;2023-03-26T06:39:49;3.20;;;1.50;;
77449;SDS011;66536;53.150;18.172;2023-03-26T06:42:44;2.60;;;1.30;;
77449;SDS011;66536;53.150;18.172;2023-03-26T06:46:35;3.60;;;1.00;;
77449;SDS011;66536;53.150;18.172;2023-03-26T06:49:55;2.30;;;1.30;;
77449;SDS011;66536;53.150;18.172;2023-03-26T06:53:23;2.40;;;1.00;;
77449;SDS011;66536;53.150;18.172;2023-03-26T06:56:48;1.30;;;0.70;;
77449;SDS011;66536;53.150;18.172;2023-03-26T07:00:15;2.30;;;1.10;;
77449;SDS011;66536;53.150;18.172;2023-03-26T07:03:39;1.10;;;0.70;;
77449;SDS011;66536;53.150;18.172;2023-03-26T07:11:24;1.10;;;0.50;;
77449;SDS011;66536;53.150;18.172;2023-03-26T07:14:53;3.30;;;1.10;;
77449;SDS011;66536;53.150;18.172;2023-03-26T07:17:47;4.10;;;1.50;;
77449;SDS011;66536;53.150;18.172;2023-03-26T07:21:41;1.60;;;0.60;;
77449;SDS011;66536;53.150;18.172;2023-03-26T07:25:02;2.30;;;1.00;;
77449;SDS011;66536;53.150;18.172;2023-03-26T07:34:54;2.60;;;1.40;;
77449;SDS011;66536;53.150;18.172;2023-03-26T07:38:06;3.10;;;1.10;;
77449;SDS011;66536;53.150;18.172;2023-03-26T07:42:17;2.90;;;1.10;;
77449;SDS011;66536;53.150;18.172;2023-03-26T07:45:58;1.00;;;0.70;;
77449;SDS011;66536;53.150;18.172;2023-03-26T07:49:05;2.80;;;1.10;;
77449;SDS011;66536;53.150;18.172;2023-03-26T07:52:54;1.50;;;0.80;;
77449;SDS011;66536;53.150;18.172;2023-03-26T07:59:53;2.60;;;1.30;;
77449;SDS011;66536;53.150;18.172;2023-03-26T08:02:49;2.20;;;1.30;;
77449;SDS011;66536;53.150;18.172;2023-03-26T08:17:31;2.70;;;1.70;;
77449;SDS011;66536;53.150;18.172;2023-03-26T08:20:58;2.50;;;1.30;;
77449;SDS011;66536;53.150;18.172;2023-03-26T08:27:31;2.80;;;1.30;;
77449;SDS011;66536;53.150;18.172;2023-03-26T08:34:23;1.90;;;1.30;;
77449;SDS011;66536;53.150;18.172;2023-03-26T08:37:34;6.80;;;3.00;;
77449;SDS011;66536;53.150;18.172;2023-03-26T08:40:03;3.00;;;1.40;;
77449;SDS011;66536;53.150;18.172;2023-03-26T08:42:59;1.90;;;1.00;;
77449;SDS011;66536;53.150;18.172;2023-03-26T08:45:52;121.30;;;47.80;;
77449;SDS011;66536;53.150;18.172;2023-03-26T08:52:31;2.50;;;1.80;;
77449;SDS011;66536;53.150;18.172;2023-03-26T08:55:55;17.10;;;5.00;;
77449;SDS011;66536;53.150;18.172;2023-03-26T09:12:06;6.60;;;2.80;;
77449;SDS011;66536;53.150;18.172;2023-03-26T09:18:31;18.30;;;13.20;;
77449;SDS011;66536;53.150;18.172;2023-03-26T09:22:47;3.10;;;2.00;;
77449;SDS011;66536;53.150;18.172;2023-03-26T09:29:14;1.50;;;0.90;;
77449;SDS011;66536;53.150;18.172;2023-03-26T09:45:15;4.50;;;1.90;;
77449;SDS011;66536;53.150;18.172;2023-03-26T09:48:21;2.40;;;1.10;;
77449;SDS011;66536;53.150;18.172;2023-03-26T09:51:29;4.10;;;1.30;;
77449;SDS011;66536;53.150;18.172;2023-03-26T09:54:31;6.10;;;1.60;;
77449;SDS011;66536;53.150;18.172;2023-03-26T09:57:45;4.70;;;1.50;;
77449;SDS011;66536;53.150;18.172;2023-03-26T10:01:09;4.00;;;1.90;;
77449;SDS011;66536;53.150;18.172;2023-03-26T10:04:10;6.40;;;2.30;;
77449;SDS011;66536;53.150;18.172;2023-03-26T10:10:24;7.20;;;1.30;;
77449;SDS011;66536;53.150;18.172;2023-03-26T10:13:12;6.10;;;3.30;;
77449;SDS011;66536;53.150;18.172;2023-03-26T10:19:30;2.10;;;0.90;;
77449;SDS011;66536;53.150;18.172;2023-03-26T10:22:34;4.70;;;1.80;;
77449;SDS011;66536;53.150;18.172;2023-03-26T10:25:52;4.30;;;1.60;;
77449;SDS011;66536;53.150;18.172;2023-03-26T10:29:00;4.00;;;1.20;;
77449;SDS011;66536;53.150;18.172;2023-03-26T10:34:54;5.60;;;2.30;;
77449;SDS011;66536;53.150;18.172;2023-03-26T10:44:24;2.80;;;1.40;;
77449;SDS011;66536;53.150;18.172;2023-03-26T10:47:10;3.80;;;1.50;;
77449;SDS011;66536;53.150;18.172;2023-03-26T10:50:15;4.70;;;1.70;;
77449;SDS011;66536;53.150;18.172;2023-03-26T10:53:02;3.40;;;1.20;;
77449;SDS011;66536;53.150;18.172;2023-03-26T10:55:39;4.10;;;1.90;;
77449;SDS011;66536;53.150;18.172;2023-03-26T10:58:29;5.90;;;1.80;;
77449;SDS011;66536;53.150;18.172;2023-03-26T11:01:01;4.50;;;2.60;;
77449;SDS011;66536;53.150;18.172;2023-03-26T11:03:54;2.90;;;1.60;;
77449;SDS011;66536;53.150;18.172;2023-03-26T11:06:41;3.40;;;1.40;;
77449;SDS011;66536;53.150;18.172;2023-03-26T11:12:21;6.80;;;2.00;;
77449;SDS011;66536;53.150;18.172;2023-03-26T11:24:24;1.60;;;1.00;;
77449;SDS011;66536;53.150;18.172;2023-03-26T11:27:06;3.60;;;1.30;;
77449;SDS011;66536;53.150;18.172;2023-03-26T11:29:55;1.90;;;0.90;;
77449;SDS011;66536;53.150;18.172;2023-03-26T11:32:52;3.70;;;1.50;;
77449;SDS011;66536;53.150;18.172;2023-03-26T11:35:44;2.80;;;1.20;;
77449;SDS011;66536;53.150;18.172;2023-03-26T11:38:27;1.80;;;1.00;;
77449;SDS011;66536;53.150;18.172;2023-03-26T11:41:44;2.80;;;1.60;;
77449;SDS011;66536;53.150;18.172;2023-03-26T11:44:42;3.90;;;1.70;;
77449;SDS011;66536;53.150;18.172;2023-03-26T11:47:46;2.40;;;1.50;;
77449;SDS011;66536;53.150;18.172;2023-03-26T11:51:48;1.10;;;0.90;;
77449;SDS011;66536;53.150;18.172;2023-03-26T11:57:56;3.00;;;1.70;;
77449;SDS011;66536;53.150;18.172;2023-03-26T12:00:26;3.40;;;1.70;;
77449;SDS011;66536;53.150;18.172;2023-03-26T12:03:00;2.20;;;1.40;;
77449;SDS011;66536;53.150;18.172;2023-03-26T12:05:27;16.60;;;12.00;;
77449;SDS011;66536;53.150;18.172;2023-03-26T12:07:59;13.20;;;6.70;;
77449;SDS011;66536;53.150;18.172;2023-03-26T12:10:49;28.60;;;20.70;;
77449;SDS011;66536;53.150;18.172;2023-03-26T12:13:27;19.30;;;12.20;;
77449;SDS011;66536;53.150;18.172;2023-03-26T12:16:02;6.70;;;3.20;;
77449;SDS011;66536;53.150;18.172;2023-03-26T12:18:34;16.30;;;9.90;;
77449;SDS011;66536;53.150;18.172;2023-03-26T12:21:07;3.00;;;2.60;;
77449;SDS011;66536;53.150;18.172;2023-03-26T12:26:30;3.50;;;2.30;;
77449;SDS011;66536;53.150;18.172;2023-03-26T12:31:40;4.00;;;1.70;;
77449;SDS011;66536;53.150;18.172;2023-03-26T12:34:18;4.30;;;2.30;;
77449;SDS011;66536;53.150;18.172;2023-03-26T12:36:49;7.10;;;3.40;;
77449;SDS011;66536;53.150;18.172;2023-03-26T12:39:32;5.50;;;2.90;;
77449;SDS011;66536;53.150;18.172;2023-03-26T12:42:13;4.50;;;2.20;;
77449;SDS011;66536;53.150;18.172;2023-03-26T12:44:54;2.70;;;1.50;;
77449;SDS011;66536;53.150;18.172;2023-03-26T12:47:45;1.70;;;0.80;;
77449;SDS011;66536;53.150;18.172;2023-03-26T12:50:13;3.80;;;1.40;;
77449;SDS011;66536;53.150;18.172;2023-03-26T12:58:30;3.90;;;1.20;;
77449;SDS011;66536;53.150;18.172;2023-03-26T13:04:21;12.50;;;3.60;;
77449;SDS011;66536;53.150;18.172;2023-03-26T13:07:02;4.10;;;1.50;;
77449;SDS011;66536;53.150;18.172;2023-03-26T13:09:51;8.80;;;2.60;;
77449;SDS011;66536;53.150;18.172;2023-03-26T13:15:46;3.60;;;1.60;;
77449;SDS011;66536;53.150;18.172;2023-03-26T13:18:26;8.40;;;2.30;;
77449;SDS011;66536;53.150;18.172;2023-03-26T13:21:18;4.20;;;1.60;;
77449;SDS011;66536;53.150;18.172;2023-03-26T13:26:56;5.30;;;2.80;;
77449;SDS011;66536;53.150;18.172;2023-03-26T13:29:36;15.90;;;8.10;;
77449;SDS011;66536;53.150;18.172;2023-03-26T13:32:23;3.80;;;1.70;;
77449;SDS011;66536;53.150;18.172;2023-03-26T13:35:11;30.30;;;16.30;;
77449;SDS011;66536;53.150;18.172;2023-03-26T13:37:54;3.50;;;1.80;;
77449;SDS011;66536;53.150;18.172;2023-03-26T13:40:40;32.90;;;9.40;;
77449;SDS011;66536;53.150;18.172;2023-03-26T13:43:24;13.30;;;5.60;;
77449;SDS011;66536;53.150;18.172;2023-03-26T13:46:18;6.50;;;1.60;;
77449;SDS011;66536;53.150;18.172;2023-03-26T13:52:09;3.60;;;1.80;;
77449;SDS011;66536;53.150;18.172;2023-03-26T13:57:50;5.10;;;2.60;;
77449;SDS011;66536;53.150;18.172;2023-03-26T14:00:29;29.70;;;9.60;;
77449;SDS011;66536;53.150;18.172;2023-03-26T14:03:26;17.60;;;6.10;;
77449;SDS011;66536;53.150;18.172;2023-03-26T14:06:05;29.00;;;8.70;;
77449;SDS011;66536;53.150;18.172;2023-03-26T14:08:43;22.80;;;7.50;;
77449;SDS011;66536;53.150;18.172;2023-03-26T14:11:30;40.80;;;12.40;;
77449;SDS011;66536;53.150;18.172;2023-03-26T14:14:19;21.70;;;6.60;;
77449;SDS011;66536;53.150;18.172;2023-03-26T14:17:05;20.90;;;7.10;;
77449;SDS011;66536;53.150;18.172;2023-03-26T14:22:45;6.80;;;3.30;;
77449;SDS011;66536;53.150;18.172;2023-03-26T14:28:47;4.80;;;2.70;;
77449;SDS011;66536;53.150;18.172;2023-03-26T14:32:02;5.40;;;2.40;;
77449;SDS011;66536;53.150;18.172;2023-03-26T14:34:42;5.30;;;1.70;;
77449;SDS011;66536;53.150;18.172;2023-03-26T14:37:37;8.20;;;2.60;;
77449;SDS011;66536;53.150;18.172;2023-03-26T14:40:23;8.30;;;2.40;;
77449;SDS011;66536;53.150;18.172;2023-03-26T14:43:00;4.00;;;1.70;;
77449;SDS011;66536;53.150;18.172;2023-03-26T14:48:52;16.20;;;4.90;;
77449;SDS011;66536;53.150;18.172;2023-03-26T14:51:39;9.80;;;3.80;;
77449;SDS011;66536;53.150;18.172;2023-03-26T14:54:30;7.30;;;2.60;;
77449;SDS011;66536;53.150;18.172;2023-03-26T15:06:25;14.00;;;4.10;;
77449;SDS011;66536;53.150;18.172;2023-03-26T15:12:05;36.10;;;21.70;;
77449;SDS011;66536;53.150;18.172;2023-03-26T15:20:51;7.20;;;4.30;;
77449;SDS011;66536;53.150;18.172;2023-03-26T15:26:44;3.10;;;1.30;;
77449;SDS011;66536;53.150;18.172;2023-03-26T15:29:50;8.70;;;7.60;;
77449;SDS011;66536;53.150;18.172;2023-03-26T15:41:23;3.50;;;2.10;;
77449;SDS011;66536;53.150;18.172;2023-03-26T15:44:18;3.90;;;1.50;;
77449;SDS011;66536;53.150;18.172;2023-03-26T15:53:20;6.40;;;2.00;;
77449;SDS011;66536;53.150;18.172;2023-03-26T15:56:06;2.20;;;1.60;;
77449;SDS011;66536;53.150;18.172;2023-03-26T15:58:50;5.10;;;4.00;;
77449;SDS011;66536;53.150;18.172;2023-03-26T16:01:38;5.60;;;2.60;;
77449;SDS011;66536;53.150;18.172;2023-03-26T16:04:37;2.10;;;1.20;;
77449;SDS011;66536;53.150;18.172;2023-03-26T16:07:25;3.70;;;1.40;;
77449;SDS011;66536;53.150;18.172;2023-03-26T16:12:46;11.90;;;6.30;;
77449;SDS011;66536;53.150;18.172;2023-03-26T16:15:26;26.30;;;11.10;;
77449;SDS011;66536;53.150;18.172;2023-03-26T16:20:53;53.60;;;24.40;;
77449;SDS011;66536;53.150;18.172;2023-03-26T16:23:34;23.10;;;10.30;;
77449;SDS011;66536;53.150;18.172;2023-03-26T16:26:23;6.20;;;3.30;;
77449;SDS011;66536;53.150;18.172;2023-03-26T16:34:36;172.30;;;90.70;;
77449;SDS011;66536;53.150;18.172;2023-03-26T16:39:55;34.20;;;24.20;;
77449;SDS011;66536;53.150;18.172;2023-03-26T16:43:05;7.80;;;5.80;;
77449;SDS011;66536;53.150;18.172;2023-03-26T16:46:03;4.50;;;1.70;;
77449;SDS011;66536;53.150;18.172;2023-03-26T16:51:49;7.60;;;3.10;;
77449;SDS011;66536;53.150;18.172;2023-03-26T16:54:40;9.30;;;3.80;;
77449;SDS011;66536;53.150;18.172;2023-03-26T16:57:34;8.20;;;4.40;;
77449;SDS011;66536;53.150;18.172;2023-03-26T17:03:22;11.90;;;6.50;;
77449;SDS011;66536;53.150;18.172;2023-03-26T17:06:00;9.90;;;6.40;;
77449;SDS011;66536;53.150;18.172;2023-03-26T17:08:37;10.80;;;3.80;;
77449;SDS011;66536;53.150;18.172;2023-03-26T17:11:25;10.40;;;5.00;;
77449;SDS011;66536;53.150;18.172;2023-03-26T17:19:35;22.20;;;10.40;;
77449;SDS011;66536;53.150;18.172;2023-03-26T17:22:18;47.30;;;18.90;;
77449;SDS011;66536;53.150;18.172;2023-03-26T17:37:02;20.50;;;8.50;;
77449;SDS011;66536;53.150;18.172;2023-03-26T17:42:38;13.70;;;6.80;;
77449;SDS011;66536;53.150;18.172;2023-03-26T17:45:30;7.90;;;4.40;;
77449;SDS011;66536;53.150;18.172;2023-03-26T17:48:08;10.30;;;5.30;;
77449;SDS011;66536;53.150;18.172;2023-03-26T17:50:45;18.30;;;7.40;;
77449;SDS011;66536;53.150;18.172;2023-03-26T17:53:23;57.80;;;23.10;;
77449;SDS011;66536;53.150;18.172;2023-03-26T17:55:56;65.30;;;27.90;;
77449;SDS011;66536;53.150;18.172;2023-03-26T17:58:29;66.60;;;29.20;;
77449;SDS011;66536;53.150;18.172;2023-03-26T18:01:06;71.60;;;32.90;;
77449;SDS011;66536;53.150;18.172;2023-03-26T18:03:49;68.80;;;24.60;;
77449;SDS011;66536;53.150;18.172;2023-03-26T18:15:00;116.10;;;39.40;;
77449;SDS011;66536;53.150;18.172;2023-03-26T18:17:48;138.60;;;43.70;;
77449;SDS011;66536;53.150;18.172;2023-03-26T18:20:20;108.50;;;32.80;;
77449;SDS011;66536;53.150;18.172;2023-03-26T18:22:49;89.70;;;28.60;;
77449;SDS011;66536;53.150;18.172;2023-03-26T18:25:24;97.80;;;31.50;;
77449;SDS011;66536;53.150;18.172;2023-03-26T18:27:59;74.20;;;26.40;;
77449;SDS011;66536;53.150;18.172;2023-03-26T18:30:27;98.50;;;32.00;;
77449;SDS011;66536;53.150;18.172;2023-03-26T18:36:13;27.40;;;11.20;;
77449;SDS011;66536;53.150;18.172;2023-03-26T18:38:42;35.20;;;17.00;;
77449;SDS011;66536;53.150;18.172;2023-03-26T18:43:52;62.30;;;22.90;;
77449;SDS011;66536;53.150;18.172;2023-03-26T18:46:26;50.00;;;19.90;;
77449;SDS011;66536;53.150;18.172;2023-03-26T18:48:59;41.80;;;16.80;;
77449;SDS011;66536;53.150;18.172;2023-03-26T18:51:45;30.90;;;9.60;;
77449;SDS011;66536;53.150;18.172;2023-03-26T18:54:15;92.30;;;27.80;;
77449;SDS011;66536;53.150;18.172;2023-03-26T18:57:09;37.10;;;12.70;;
77449;SDS011;66536;53.150;18.172;2023-03-26T19:04:14;32.00;;;11.00;;
77449;SDS011;66536;53.150;18.172;2023-03-26T19:06:49;60.90;;;15.80;;
77449;SDS011;66536;53.150;18.172;2023-03-26T19:09:20;79.50;;;21.10;;
77449;SDS011;66536;53.150;18.172;2023-03-26T19:11:55;61.20;;;17.80;;
77449;SDS011;66536;53.150;18.172;2023-03-26T19:17:40;11.50;;;4.00;;
77449;SDS011;66536;53.150;18.172;2023-03-26T19:20:17;32.10;;;9.30;;
77449;SDS011;66536;53.150;18.172;2023-03-26T19:23:08;23.50;;;7.30;;
77449;SDS011;66536;53.150;18.172;2023-03-26T19:25:46;51.40;;;12.30;;
77449;SDS011;66536;53.150;18.172;2023-03-26T19:28:17;137.00;;;27.50;;
77449;SDS011;66536;53.150;18.172;2023-03-26T19:30:51;82.60;;;17.80;;
77449;SDS011;66536;53.150;18.172;2023-03-26T19:33:20;126.40;;;30.00;;
77449;SDS011;66536;53.150;18.172;2023-03-26T19:35:50;80.90;;;21.30;;
77449;SDS011;66536;53.150;18.172;2023-03-26T19:38:27;95.50;;;27.80;;
77449;SDS011;66536;53.150;18.172;2023-03-26T19:41:02;112.80;;;34.20;;
77449;SDS011;66536;53.150;18.172;2023-03-26T19:43:30;63.30;;;24.30;;
77449;SDS011;66536;53.150;18.172;2023-03-26T19:45:58;23.40;;;9.20;;
77449;SDS011;66536;53.150;18.172;2023-03-26T19:48:25;60.40;;;25.30;;
77449;SDS011;66536;53.150;18.172;2023-03-26T19:51:00;52.70;;;23.20;;
77449;SDS011;66536;53.150;18.172;2023-03-26T19:53:32;32.20;;;13.40;;
77449;SDS011;66536;53.150;18.172;2023-03-26T19:56:11;25.20;;;8.10;;
77449;SDS011;66536;53.150;18.172;2023-03-26T19:58:40;19.20;;;5.60;;
77449;SDS011;66536;53.150;18.172;2023-03-26T20:01:18;46.80;;;14.30;;
77449;SDS011;66536;53.150;18.172;2023-03-26T20:03:47;21.10;;;5.70;;
77449;SDS011;66536;53.150;18.172;2023-03-26T20:06:18;44.30;;;13.30;;
77449;SDS011;66536;53.150;18.172;2023-03-26T20:08:45;74.50;;;20.80;;
77449;SDS011;66536;53.150;18.172;2023-03-26T20:11:18;84.70;;;26.00;;
77449;SDS011;66536;53.150;18.172;2023-03-26T20:13:47;53.90;;;17.40;;
77449;SDS011;66536;53.150;18.172;2023-03-26T20:16:23;42.30;;;15.60;;
77449;SDS011;66536;53.150;18.172;2023-03-26T20:18:51;30.50;;;10.10;;
77449;SDS011;66536;53.150;18.172;2023-03-26T20:21:23;14.30;;;4.40;;
77449;SDS011;66536;53.150;18.172;2023-03-26T20:23:50;14.90;;;6.20;;
77449;SDS011;66536;53.150;18.172;2023-03-26T20:26:18;18.70;;;6.60;;
77449;SDS011;66536;53.150;18.172;2023-03-26T20:28:45;14.10;;;5.30;;
77449;SDS011;66536;53.150;18.172;2023-03-26T20:31:13;11.50;;;4.10;;
77449;SDS011;66536;53.150;18.172;2023-03-26T20:33:41;15.60;;;5.90;;
77449;SDS011;66536;53.150;18.172;2023-03-26T20:36:10;18.80;;;5.10;;
77449;SDS011;66536;53.150;18.172;2023-03-26T20:38:43;23.70;;;6.30;;
77449;SDS011;66536;53.150;18.172;2023-03-26T20:41:15;72.30;;;16.30;;
77449;SDS011;66536;53.150;18.172;2023-03-26T20:43:44;80.50;;;21.50;;
77449;SDS011;66536;53.150;18.172;2023-03-26T20:46:12;71.90;;;21.50;;
77449;SDS011;66536;53.150;18.172;2023-03-26T20:48:42;34.50;;;13.00;;
77449;SDS011;66536;53.150;18.172;2023-03-26T20:51:10;31.80;;;11.60;;
77449;SDS011;66536;53.150;18.172;2023-03-26T20:53:41;79.00;;;17.40;;
77449;SDS011;66536;53.150;18.172;2023-03-26T20:56:10;74.10;;;16.40;;
77449;SDS011;66536;53.150;18.172;2023-03-26T20:58:54;51.30;;;11.10;;
77449;SDS011;66536;53.150;18.172;2023-03-26T21:01:22;92.20;;;20.30;;
77449;SDS011;66536;53.150;18.172;2023-03-26T21:03:48;46.10;;;10.40;;
77449;SDS011;66536;53.150;18.172;2023-03-26T21:06:15;32.40;;;7.90;;
77449;SDS011;66536;53.150;18.172;2023-03-26T21:08:42;18.10;;;4.40;;
77449;SDS011;66536;53.150;18.172;2023-03-26T21:11:37;28.80;;;7.00;;
77449;SDS011;66536;53.150;18.172;2023-03-26T21:14:17;21.20;;;4.50;;
77449;SDS011;66536;53.150;18.172;2023-03-26T21:16:47;16.50;;;4.30;;
77449;SDS011;66536;53.150;18.172;2023-03-26T21:19:15;12.40;;;3.90;;
77449;SDS011;66536;53.150;18.172;2023-03-26T21:21:50;21.70;;;6.50;;
77449;SDS011;66536;53.150;18.172;2023-03-26T21:30:17;22.00;;;5.30;;
77449;SDS011;66536;53.150;18.172;2023-03-26T21:32:44;27.00;;;7.80;;
77449;SDS011;66536;53.150;18.172;2023-03-26T21:35:19;32.60;;;8.60;;
77449;SDS011;66536;53.150;18.172;2023-03-26T21:37:45;34.20;;;7.60;;
77449;SDS011;66536;53.150;18.172;2023-03-26T21:40:14;31.70;;;8.10;;
77449;SDS011;66536;53.150;18.172;2023-03-26T21:42:43;24.70;;;7.70;;
77449;SDS011;66536;53.150;18.172;2023-03-26T21:45:28;38.30;;;9.90;;
77449;SDS011;66536;53.150;18.172;2023-03-26T21:47:55;31.00;;;8.70;;
77449;SDS011;66536;53.150;18.172;2023-03-26T21:50:29;38.60;;;10.40;;
77449;SDS011;66536;53.150;18.172;2023-03-26T21:53:04;49.40;;;13.10;;
77449;SDS011;66536;53.150;18.172;2023-03-26T21:55:33;56.90;;;14.50;;
77449;SDS011;66536;53.150;18.172;2023-03-26T21:58:11;44.90;;;9.70;;
77449;SDS011;66536;53.150;18.172;2023-03-26T22:00:55;29.90;;;8.90;;
77449;SDS011;66536;53.150;18.172;2023-03-26T22:06:34;23.20;;;8.10;;
77449;SDS011;66536;53.150;18.172;2023-03-26T22:09:08;26.40;;;9.80;;
77449;SDS011;66536;53.150;18.172;2023-03-26T22:11:37;28.40;;;10.40;;
77449;SDS011;66536;53.150;18.172;2023-03-26T22:14:24;29.10;;;8.70;;
77449;SDS011;66536;53.150;18.172;2023-03-26T22:16:54;21.90;;;8.00;;
77449;SDS011;66536;53.150;18.172;2023-03-26T22:19:20;25.40;;;7.90;;
77449;SDS011;66536;53.150;18.172;2023-03-26T22:21:46;39.30;;;13.10;;
77449;SDS011;66536;53.150;18.172;2023-03-26T22:24:12;52.30;;;17.60;;